sensor_id;sensor_type;location;lat;lon;timestamp;temperature;humidity
67358;HTU21D;54240;51.096;5.878;2023-06-05T00:01:56;16.52;-6.00
67358;HTU21D;54240;51.096;5.878;2023-06-05T00:04:21;16.51;-6.00
67358;HTU21D;54240;51.096;5.878;2023-06-05T00:06:49;16.37;-6.00
67358;HTU21D;54240;51.096;5.878;2023-06-05T00:09:16;16.46;-6.00
67358;HTU21D;54240;51.096;5.878;2023-06-05T00:11:43;16.44;-6.00
67358;HTU21D;54240;51.096;5.878;2023-06-05T00:14:09;16.34;-6.00
67358;HTU21D;54240;51.096;5.878;2023-06-05T00:16:35;16.28;-6.00
67358;HTU21D;54240;51.096;5.878;2023-06-05T00:19:02;16.30;-6.00
67358;HTU21D;54240;51.096;5.878;2023-06-05T00:21:28;16.25;-6.00
67358;HTU21D;54240;51.096;5.878;2023-06-05T00:23:54;16.21;-6.00
67358;HTU21D;54240;51.096;5.878;2023-06-05T00:26:20;16.25;-6.00
67358;HTU21D;54240;51.096;5.878;2023-06-05T00:28:48;16.19;-6.00
67358;HTU21D;54240;51.096;5.878;2023-06-05T00:31:14;16.13;-6.00
67358;HTU21D;54240;51.096;5.878;2023-06-05T00:33:40;16.08;-6.00
67358;HTU21D;54240;51.096;5.878;2023-06-05T00:36:06;15.93;-6.00
67358;HTU21D;54240;51.096;5.878;2023-06-05T00:38:32;15.97;-6.00
67358;HTU21D;54240;51.096;5.878;2023-06-05T00:40:58;15.89;-6.00
67358;HTU21D;54240;51.096;5.878;2023-06-05T00:43:24;15.93;-6.00
67358;HTU21D;54240;51.096;5.878;2023-06-05T00:45:58;15.88;-6.00
67358;HTU21D;54240;51.096;5.878;2023-06-05T00:48:26;15.80;-6.00
67358;HTU21D;54240;51.096;5.878;2023-06-05T00:50:53;15.65;-6.00
67358;HTU21D;54240;51.096;5.878;2023-06-05T00:53:20;15.60;-6.00
67358;HTU21D;54240;51.096;5.878;2023-06-05T00:55:47;15.63;-6.00
67358;HTU21D;54240;51.096;5.878;2023-06-05T00:58:13;15.54;-6.00
67358;HTU21D;54240;51.096;5.878;2023-06-05T01:00:41;15.54;-6.00
67358;HTU21D;54240;51.096;5.878;2023-06-05T01:03:07;15.52;-6.00
67358;HTU21D;54240;51.096;5.878;2023-06-05T01:05:34;15.42;-6.00
67358;HTU21D;54240;51.096;5.878;2023-06-05T01:08:03;15.44;-6.00
67358;HTU21D;54240;51.096;5.878;2023-06-05T01:10:31;15.42;-6.00
67358;HTU21D;54240;51.096;5.878;2023-06-05T01:15:29;15.36;-6.00
67358;HTU21D;54240;51.096;5.878;2023-06-05T01:17:56;15.28;-6.00
67358;HTU21D;54240;51.096;5.878;2023-06-05T01:20:23;15.10;-6.00
67358;HTU21D;54240;51.096;5.878;2023-06-05T01:22:49;15.21;-6.00
67358;HTU21D;54240;51.096;5.878;2023-06-05T01:25:18;15.19;-6.00
67358;HTU21D;54240;51.096;5.878;2023-06-05T01:31:09;15.19;-6.00
67358;HTU21D;54240;51.096;5.878;2023-06-05T01:33:51;15.12;-6.00
67358;HTU21D;54240;51.096;5.878;2023-06-05T01:36:23;15.13;-6.00
67358;HTU21D;54240;51.096;5.878;2023-06-05T01:38:52;15.06;-6.00
67358;HTU21D;54240;51.096;5.878;2023-06-05T01:41:20;14.97;-6.00
67358;HTU21D;54240;51.096;5.878;2023-06-05T01:43:47;14.91;-6.00
67358;HTU21D;54240;51.096;5.878;2023-06-05T01:46:21;14.84;-6.00
67358;HTU21D;54240;51.096;5.878;2023-06-05T01:48:48;14.85;-6.00
67358;HTU21D;54240;51.096;5.878;2023-06-05T01:51:17;14.80;-6.00
67358;HTU21D;54240;51.096;5.878;2023-06-05T01:53:43;14.80;-6.00
67358;HTU21D;54240;51.096;5.878;2023-06-05T01:56:09;14.75;-6.00
67358;HTU21D;54240;51.096;5.878;2023-06-05T01:58:36;14.71;-6.00
67358;HTU21D;54240;51.096;5.878;2023-06-05T02:01:03;14.65;-6.00
67358;HTU21D;54240;51.096;5.878;2023-06-05T02:03:29;14.66;-6.00
67358;HTU21D;54240;51.096;5.878;2023-06-05T02:05:54;14.60;-6.00
67358;HTU21D;54240;51.096;5.878;2023-06-05T02:08:20;14.62;-6.00
67358;HTU21D;54240;51.096;5.878;2023-06-05T02:10:49;14.62;-6.00
67358;HTU21D;54240;51.096;5.878;2023-06-05T02:13:15;14.60;-6.00
67358;HTU21D;54240;51.096;5.878;2023-06-05T02:15:42;14.53;-6.00
67358;HTU21D;54240;51.096;5.878;2023-06-05T02:18:11;14.47;-6.00
67358;HTU21D;54240;51.096;5.878;2023-06-05T02:20:37;14.42;-6.00
67358;HTU21D;54240;51.096;5.878;2023-06-05T02:23:03;14.42;-6.00
67358;HTU21D;54240;51.096;5.878;2023-06-05T02:25:31;14.35;-6.00
67358;HTU21D;54240;51.096;5.878;2023-06-05T02:27:57;14.34;-6.00
67358;HTU21D;54240;51.096;5.878;2023-06-05T02:30:23;14.22;-6.00
67358;HTU21D;54240;51.096;5.878;2023-06-05T02:32:51;14.20;-6.00
67358;HTU21D;54240;51.096;5.878;2023-06-05T02:35:26;14.14;-6.00
67358;HTU21D;54240;51.096;5.878;2023-06-05T02:37:53;14.17;-6.00
67358;HTU21D;54240;51.096;5.878;2023-06-05T02:40:20;14.14;-6.00
67358;HTU21D;54240;51.096;5.878;2023-06-05T02:42:46;14.12;-6.00
67358;HTU21D;54240;51.096;5.878;2023-06-05T02:45:12;14.07;-6.00
67358;HTU21D;54240;51.096;5.878;2023-06-05T02:47:38;14.04;-6.00
67358;HTU21D;54240;51.096;5.878;2023-06-05T02:50:06;13.99;-6.00
67358;HTU21D;54240;51.096;5.878;2023-06-05T02:52:36;13.93;-6.00
67358;HTU21D;54240;51.096;5.878;2023-06-05T02:55:10;13.94;-6.00
67358;HTU21D;54240;51.096;5.878;2023-06-05T02:57:36;13.88;-6.00
67358;HTU21D;54240;51.096;5.878;2023-06-05T03:00:11;13.88;-6.00
67358;HTU21D;54240;51.096;5.878;2023-06-05T03:02:43;13.86;-6.00
67358;HTU21D;54240;51.096;5.878;2023-06-05T03:05:20;13.82;-6.00
67358;HTU21D;54240;51.096;5.878;2023-06-05T03:07:52;13.82;-6.00
67358;HTU21D;54240;51.096;5.878;2023-06-05T03:10:20;13.80;-6.00
67358;HTU21D;54240;51.096;5.878;2023-06-05T03:12:47;13.76;-6.00
67358;HTU21D;54240;51.096;5.878;2023-06-05T03:15:13;13.67;-6.00
67358;HTU21D;54240;51.096;5.878;2023-06-05T03:17:42;13.66;-6.00
67358;HTU21D;54240;51.096;5.878;2023-06-05T03:20:09;13.65;-6.00
67358;HTU21D;54240;51.096;5.878;2023-06-05T03:22:35;13.63;-6.00
67358;HTU21D;54240;51.096;5.878;2023-06-05T03:25:01;13.62;-6.00
67358;HTU21D;54240;51.096;5.878;2023-06-05T03:27:28;13.59;-6.00
67358;HTU21D;54240;51.096;5.878;2023-06-05T03:29:54;13.56;-6.00
67358;HTU21D;54240;51.096;5.878;2023-06-05T03:32:20;13.56;-6.00
67358;HTU21D;54240;51.096;5.878;2023-06-05T03:34:46;13.58;-6.00
67358;HTU21D;54240;51.096;5.878;2023-06-05T03:37:15;13.59;-6.00
67358;HTU21D;54240;51.096;5.878;2023-06-05T03:39:44;13.56;-6.00
67358;HTU21D;54240;51.096;5.878;2023-06-05T03:42:11;13.52;-6.00
67358;HTU21D;54240;51.096;5.878;2023-06-05T03:44:37;13.50;-6.00
67358;HTU21D;54240;51.096;5.878;2023-06-05T03:47:03;13.51;-6.00
67358;HTU21D;54240;51.096;5.878;2023-06-05T03:49:31;13.54;-6.00
67358;HTU21D;54240;51.096;5.878;2023-06-05T03:51:57;13.55;-6.00
67358;HTU21D;54240;51.096;5.878;2023-06-05T03:54:27;13.55;-6.00
67358;HTU21D;54240;51.096;5.878;2023-06-05T03:56:54;13.58;-6.00
67358;HTU21D;54240;51.096;5.878;2023-06-05T03:59:21;13.56;-6.00
67358;HTU21D;54240;51.096;5.878;2023-06-05T04:01:56;13.60;-6.00
67358;HTU21D;54240;51.096;5.878;2023-06-05T04:04:23;13.59;-6.00
67358;HTU21D;54240;51.096;5.878;2023-06-05T04:06:54;13.58;-6.00
67358;HTU21D;54240;51.096;5.878;2023-06-05T04:09:21;13.58;-6.00
67358;HTU21D;54240;51.096;5.878;2023-06-05T04:11:47;13.55;-6.00
67358;HTU21D;54240;51.096;5.878;2023-06-05T04:14:14;13.56;-6.00
67358;HTU21D;54240;51.096;5.878;2023-06-05T04:16:40;13.62;-6.00
67358;HTU21D;54240;51.096;5.878;2023-06-05T04:19:15;13.65;-6.00
67358;HTU21D;54240;51.096;5.878;2023-06-05T04:21:43;13.68;-6.00
67358;HTU21D;54240;51.096;5.878;2023-06-05T04:24:11;13.64;-6.00
67358;HTU21D;54240;51.096;5.878;2023-06-05T04:26:39;13.60;-6.00
67358;HTU21D;54240;51.096;5.878;2023-06-05T04:29:07;13.54;-6.00
67358;HTU21D;54240;51.096;5.878;2023-06-05T04:31:41;13.60;-6.00
67358;HTU21D;54240;51.096;5.878;2023-06-05T04:34:08;13.65;-6.00
67358;HTU21D;54240;51.096;5.878;2023-06-05T04:36:34;13.61;-6.00
67358;HTU21D;54240;51.096;5.878;2023-06-05T04:39:01;13.66;-6.00
67358;HTU21D;54240;51.096;5.878;2023-06-05T04:41:30;13.73;-6.00
67358;HTU21D;54240;51.096;5.878;2023-06-05T04:43:59;13.71;-6.00
67358;HTU21D;54240;51.096;5.878;2023-06-05T04:46:30;13.79;-6.00
67358;HTU21D;54240;51.096;5.878;2023-06-05T04:48:57;13.77;-6.00
67358;HTU21D;54240;51.096;5.878;2023-06-05T04:51:24;13.74;-6.00
67358;HTU21D;54240;51.096;5.878;2023-06-05T04:53:52;13.79;-6.00
67358;HTU21D;54240;51.096;5.878;2023-06-05T04:56:21;13.90;-6.00
67358;HTU21D;54240;51.096;5.878;2023-06-05T04:58:48;13.99;-6.00
67358;HTU21D;54240;51.096;5.878;2023-06-05T05:01:16;14.00;-6.00
67358;HTU21D;54240;51.096;5.878;2023-06-05T05:03:44;14.10;-6.00
67358;HTU21D;54240;51.096;5.878;2023-06-05T05:06:13;14.08;-6.00
67358;HTU21D;54240;51.096;5.878;2023-06-05T05:08:41;14.08;-6.00
67358;HTU21D;54240;51.096;5.878;2023-06-05T05:11:08;14.09;-6.00
67358;HTU21D;54240;51.096;5.878;2023-06-05T05:13:33;14.12;-6.00
67358;HTU21D;54240;51.096;5.878;2023-06-05T05:16:00;14.23;-6.00
67358;HTU21D;54240;51.096;5.878;2023-06-05T05:18:26;14.13;-6.00
67358;HTU21D;54240;51.096;5.878;2023-06-05T05:20:54;14.28;-6.00
67358;HTU21D;54240;51.096;5.878;2023-06-05T05:23:20;14.29;-6.00
67358;HTU21D;54240;51.096;5.878;2023-06-05T05:25:47;14.35;-6.00
67358;HTU21D;54240;51.096;5.878;2023-06-05T05:28:13;14.30;-6.00
67358;HTU21D;54240;51.096;5.878;2023-06-05T05:30:40;14.34;-6.00
67358;HTU21D;54240;51.096;5.878;2023-06-05T05:33:06;14.48;-6.00
67358;HTU21D;54240;51.096;5.878;2023-06-05T05:35:32;14.60;-6.00
67358;HTU21D;54240;51.096;5.878;2023-06-05T05:37:59;14.66;-6.00
67358;HTU21D;54240;51.096;5.878;2023-06-05T05:40:25;14.72;-6.00
67358;HTU21D;54240;51.096;5.878;2023-06-05T05:42:51;14.66;-6.00
67358;HTU21D;54240;51.096;5.878;2023-06-05T05:45:17;14.80;-6.00
67358;HTU21D;54240;51.096;5.878;2023-06-05T05:47:43;14.84;-6.00
67358;HTU21D;54240;51.096;5.878;2023-06-05T05:50:09;14.79;-6.00
67358;HTU21D;54240;51.096;5.878;2023-06-05T05:52:35;14.69;-6.00
67358;HTU21D;54240;51.096;5.878;2023-06-05T05:55:01;14.82;-6.00
67358;HTU21D;54240;51.096;5.878;2023-06-05T05:57:29;14.82;-6.00
67358;HTU21D;54240;51.096;5.878;2023-06-05T05:59:55;14.78;-6.00
67358;HTU21D;54240;51.096;5.878;2023-06-05T06:02:21;14.86;-6.00
67358;HTU21D;54240;51.096;5.878;2023-06-05T06:04:47;14.88;-6.00
67358;HTU21D;54240;51.096;5.878;2023-06-05T06:07:14;14.99;-6.00
67358;HTU21D;54240;51.096;5.878;2023-06-05T06:09:41;14.99;-6.00
67358;HTU21D;54240;51.096;5.878;2023-06-05T06:12:07;15.11;-6.00
67358;HTU21D;54240;51.096;5.878;2023-06-05T06:14:34;15.26;-6.00
67358;HTU21D;54240;51.096;5.878;2023-06-05T06:17:01;15.46;-6.00
67358;HTU21D;54240;51.096;5.878;2023-06-05T06:19:28;15.53;-6.00
67358;HTU21D;54240;51.096;5.878;2023-06-05T06:21:55;15.66;-6.00
67358;HTU21D;54240;51.096;5.878;2023-06-05T06:24:21;15.77;-6.00
67358;HTU21D;54240;51.096;5.878;2023-06-05T06:26:48;15.98;-6.00
67358;HTU21D;54240;51.096;5.878;2023-06-05T06:29:18;16.10;-6.00
67358;HTU21D;54240;51.096;5.878;2023-06-05T06:31:44;16.05;-6.00
67358;HTU21D;54240;51.096;5.878;2023-06-05T06:34:10;15.89;-6.00
67358;HTU21D;54240;51.096;5.878;2023-06-05T06:36:39;15.89;-6.00
67358;HTU21D;54240;51.096;5.878;2023-06-05T06:39:06;15.95;-6.00
67358;HTU21D;54240;51.096;5.878;2023-06-05T06:41:37;16.07;-6.00
67358;HTU21D;54240;51.096;5.878;2023-06-05T06:44:03;16.03;-6.00
67358;HTU21D;54240;51.096;5.878;2023-06-05T06:46:31;16.14;-6.00
67358;HTU21D;54240;51.096;5.878;2023-06-05T06:48:57;16.30;-6.00
67358;HTU21D;54240;51.096;5.878;2023-06-05T06:51:23;16.47;-6.00
67358;HTU21D;54240;51.096;5.878;2023-06-05T06:53:50;16.64;-6.00
67358;HTU21D;54240;51.096;5.878;2023-06-05T06:56:17;16.80;-6.00
67358;HTU21D;54240;51.096;5.878;2023-06-05T06:58:46;16.98;-6.00
67358;HTU21D;54240;51.096;5.878;2023-06-05T07:01:14;17.15;-6.00
67358;HTU21D;54240;51.096;5.878;2023-06-05T07:03:40;17.26;-6.00
67358;HTU21D;54240;51.096;5.878;2023-06-05T07:06:09;17.39;-6.00
67358;HTU21D;54240;51.096;5.878;2023-06-05T07:08:35;17.39;-6.00
67358;HTU21D;54240;51.096;5.878;2023-06-05T07:11:01;17.51;-6.00
67358;HTU21D;54240;51.096;5.878;2023-06-05T07:13:28;17.70;-6.00
67358;HTU21D;54240;51.096;5.878;2023-06-05T07:15:54;17.78;-6.00
67358;HTU21D;54240;51.096;5.878;2023-06-05T07:18:20;17.91;-6.00
67358;HTU21D;54240;51.096;5.878;2023-06-05T07:20:46;18.06;-6.00
67358;HTU21D;54240;51.096;5.878;2023-06-05T07:23:14;18.13;-6.00
67358;HTU21D;54240;51.096;5.878;2023-06-05T07:25:40;18.12;-6.00
67358;HTU21D;54240;51.096;5.878;2023-06-05T07:28:09;18.12;-6.00
67358;HTU21D;54240;51.096;5.878;2023-06-05T07:30:37;18.14;-6.00
67358;HTU21D;54240;51.096;5.878;2023-06-05T07:33:03;18.03;-6.00
67358;HTU21D;54240;51.096;5.878;2023-06-05T07:35:29;17.89;-6.00
67358;HTU21D;54240;51.096;5.878;2023-06-05T07:37:55;17.99;-6.00
67358;HTU21D;54240;51.096;5.878;2023-06-05T07:40:21;18.14;-6.00
67358;HTU21D;54240;51.096;5.878;2023-06-05T07:42:47;18.18;-6.00
67358;HTU21D;54240;51.096;5.878;2023-06-05T07:45:13;18.37;-6.00
67358;HTU21D;54240;51.096;5.878;2023-06-05T07:47:39;18.56;-6.00
67358;HTU21D;54240;51.096;5.878;2023-06-05T07:50:05;18.79;-6.00
67358;HTU21D;54240;51.096;5.878;2023-06-05T07:52:33;18.87;-6.00
67358;HTU21D;54240;51.096;5.878;2023-06-05T07:54:59;19.13;-6.00
67358;HTU21D;54240;51.096;5.878;2023-06-05T07:57:25;19.13;-6.00
67358;HTU21D;54240;51.096;5.878;2023-06-05T07:59:51;19.27;-6.00
67358;HTU21D;54240;51.096;5.878;2023-06-05T08:02:20;19.59;-6.00
67358;HTU21D;54240;51.096;5.878;2023-06-05T08:04:46;19.48;-6.00
67358;HTU21D;54240;51.096;5.878;2023-06-05T08:07:12;19.74;-6.00
67358;HTU21D;54240;51.096;5.878;2023-06-05T08:09:38;19.85;-6.00
67358;HTU21D;54240;51.096;5.878;2023-06-05T08:12:05;20.45;-6.00
67358;HTU21D;54240;51.096;5.878;2023-06-05T08:14:33;20.51;-6.00
67358;HTU21D;54240;51.096;5.878;2023-06-05T08:16:58;20.78;-6.00
67358;HTU21D;54240;51.096;5.878;2023-06-05T08:19:24;20.79;-6.00
67358;HTU21D;54240;51.096;5.878;2023-06-05T08:21:52;21.25;-6.00
67358;HTU21D;54240;51.096;5.878;2023-06-05T08:24:25;21.49;-6.00
67358;HTU21D;54240;51.096;5.878;2023-06-05T08:26:52;21.59;-6.00
67358;HTU21D;54240;51.096;5.878;2023-06-05T08:29:19;21.51;-6.00
67358;HTU21D;54240;51.096;5.878;2023-06-05T08:31:45;21.65;-6.00
67358;HTU21D;54240;51.096;5.878;2023-06-05T08:34:12;21.96;-6.00
67358;HTU21D;54240;51.096;5.878;2023-06-05T08:36:38;21.97;-6.00
67358;HTU21D;54240;51.096;5.878;2023-06-05T08:39:04;22.04;-6.00
67358;HTU21D;54240;51.096;5.878;2023-06-05T08:41:31;22.13;-6.00
67358;HTU21D;54240;51.096;5.878;2023-06-05T08:43:58;22.19;-6.00
67358;HTU21D;54240;51.096;5.878;2023-06-05T08:46:28;22.54;-6.00
67358;HTU21D;54240;51.096;5.878;2023-06-05T08:48:55;22.65;-6.00
67358;HTU21D;54240;51.096;5.878;2023-06-05T08:51:22;23.15;-6.00
67358;HTU21D;54240;51.096;5.878;2023-06-05T08:54:04;23.15;-6.00
67358;HTU21D;54240;51.096;5.878;2023-06-05T08:56:35;23.23;-6.00
67358;HTU21D;54240;51.096;5.878;2023-06-05T08:59:04;23.30;-6.00
67358;HTU21D;54240;51.096;5.878;2023-06-05T09:01:30;23.49;-6.00
67358;HTU21D;54240;51.096;5.878;2023-06-05T09:03:57;23.94;-6.00
67358;HTU21D;54240;51.096;5.878;2023-06-05T09:06:24;24.29;-6.00
67358;HTU21D;54240;51.096;5.878;2023-06-05T09:08:51;24.28;-6.00
67358;HTU21D;54240;51.096;5.878;2023-06-05T09:11:28;24.05;-6.00
67358;HTU21D;54240;51.096;5.878;2023-06-05T09:13:56;24.10;-6.00
67358;HTU21D;54240;51.096;5.878;2023-06-05T09:16:36;24.23;-6.00
67358;HTU21D;54240;51.096;5.878;2023-06-05T09:19:04;23.92;-6.00
67358;HTU21D;54240;51.096;5.878;2023-06-05T09:21:31;24.10;-6.00
67358;HTU21D;54240;51.096;5.878;2023-06-05T09:26:55;24.59;-6.00
67358;HTU21D;54240;51.096;5.878;2023-06-05T09:29:25;25.13;-6.00
67358;HTU21D;54240;51.096;5.878;2023-06-05T09:31:54;25.37;-6.00
67358;HTU21D;54240;51.096;5.878;2023-06-05T09:36:54;24.91;-6.00
67358;HTU21D;54240;51.096;5.878;2023-06-05T09:39:21;24.61;-6.00
67358;HTU21D;54240;51.096;5.878;2023-06-05T09:41:48;24.46;-6.00
67358;HTU21D;54240;51.096;5.878;2023-06-05T09:44:15;24.31;-6.00
67358;HTU21D;54240;51.096;5.878;2023-06-05T09:46:55;24.44;-6.00
67358;HTU21D;54240;51.096;5.878;2023-06-05T09:49:25;24.34;-6.00
67358;HTU21D;54240;51.096;5.878;2023-06-05T09:51:52;24.05;-6.00
67358;HTU21D;54240;51.096;5.878;2023-06-05T09:54:20;24.40;-6.00
67358;HTU21D;54240;51.096;5.878;2023-06-05T09:56:48;24.57;-6.00
67358;HTU21D;54240;51.096;5.878;2023-06-05T09:59:21;25.12;-6.00
67358;HTU21D;54240;51.096;5.878;2023-06-05T10:01:54;25.92;-6.00
67358;HTU21D;54240;51.096;5.878;2023-06-05T10:04:23;26.34;-6.00
67358;HTU21D;54240;51.096;5.878;2023-06-05T10:06:53;26.19;-6.00
67358;HTU21D;54240;51.096;5.878;2023-06-05T10:09:20;26.06;-6.00
67358;HTU21D;54240;51.096;5.878;2023-06-05T10:11:50;25.75;-6.00
67358;HTU21D;54240;51.096;5.878;2023-06-05T10:14:18;25.53;-6.00
67358;HTU21D;54240;51.096;5.878;2023-06-05T10:16:49;25.80;-6.00
67358;HTU21D;54240;51.096;5.878;2023-06-05T10:19:20;25.74;-6.00
67358;HTU21D;54240;51.096;5.878;2023-06-05T10:21:48;24.82;-6.00
67358;HTU21D;54240;51.096;5.878;2023-06-05T10:24:33;24.99;-6.00
67358;HTU21D;54240;51.096;5.878;2023-06-05T10:40:45;26.04;-6.00
67358;HTU21D;54240;51.096;5.878;2023-06-05T10:43:30;26.45;-6.00
67358;HTU21D;54240;51.096;5.878;2023-06-05T10:45:59;26.55;-6.00
67358;HTU21D;54240;51.096;5.878;2023-06-05T10:51:48;27.10;-6.00
67358;HTU21D;54240;51.096;5.878;2023-06-05T10:57:03;27.79;-6.00
67358;HTU21D;54240;51.096;5.878;2023-06-05T10:59:35;27.22;-6.00
67358;HTU21D;54240;51.096;5.878;2023-06-05T11:10:19;27.31;-6.00
67358;HTU21D;54240;51.096;5.878;2023-06-05T11:20:56;26.90;-6.00
67358;HTU21D;54240;51.096;5.878;2023-06-05T11:23:23;27.34;-6.00
67358;HTU21D;54240;51.096;5.878;2023-06-05T11:25:58;28.04;-6.00
67358;HTU21D;54240;51.096;5.878;2023-06-05T11:28:37;28.95;-6.00
67358;HTU21D;54240;51.096;5.878;2023-06-05T11:31:04;28.79;-6.00
67358;HTU21D;54240;51.096;5.878;2023-06-05T11:33:30;29.06;-6.00
67358;HTU21D;54240;51.096;5.878;2023-06-05T11:36:01;28.84;-6.00
67358;HTU21D;54240;51.096;5.878;2023-06-05T11:38:27;28.67;-6.00
67358;HTU21D;54240;51.096;5.878;2023-06-05T11:40:54;28.42;-6.00
67358;HTU21D;54240;51.096;5.878;2023-06-05T11:43:21;27.40;-6.00
67358;HTU21D;54240;51.096;5.878;2023-06-05T11:45:55;27.06;-6.00
67358;HTU21D;54240;51.096;5.878;2023-06-05T11:48:22;25.95;-6.00
67358;HTU21D;54240;51.096;5.878;2023-06-05T11:53:20;26.07;-6.00
67358;HTU21D;54240;51.096;5.878;2023-06-05T11:55:46;25.98;-6.00
67358;HTU21D;54240;51.096;5.878;2023-06-05T11:58:26;26.31;-6.00
67358;HTU21D;54240;51.096;5.878;2023-06-05T12:03:35;26.18;-6.00
67358;HTU21D;54240;51.096;5.878;2023-06-05T12:06:03;26.37;-6.00
67358;HTU21D;54240;51.096;5.878;2023-06-05T12:08:30;25.78;-6.00
67358;HTU21D;54240;51.096;5.878;2023-06-05T12:10:59;25.94;-6.00
67358;HTU21D;54240;51.096;5.878;2023-06-05T12:13:44;25.99;-6.00
67358;HTU21D;54240;51.096;5.878;2023-06-05T12:16:11;26.50;-6.00
67358;HTU21D;54240;51.096;5.878;2023-06-05T12:18:37;26.71;-6.00
67358;HTU21D;54240;51.096;5.878;2023-06-05T12:21:03;26.54;-6.00
67358;HTU21D;54240;51.096;5.878;2023-06-05T12:23:32;26.08;-6.00
67358;HTU21D;54240;51.096;5.878;2023-06-05T12:26:03;25.81;-6.00
67358;HTU21D;54240;51.096;5.878;2023-06-05T12:28:30;25.91;-6.00
67358;HTU21D;54240;51.096;5.878;2023-06-05T12:30:57;26.20;-6.00
67358;HTU21D;54240;51.096;5.878;2023-06-05T12:33:24;26.23;-6.00
67358;HTU21D;54240;51.096;5.878;2023-06-05T12:36:08;26.28;-6.00
67358;HTU21D;54240;51.096;5.878;2023-06-05T12:38:40;26.09;-6.00
67358;HTU21D;54240;51.096;5.878;2023-06-05T12:41:08;26.43;-6.00
67358;HTU21D;54240;51.096;5.878;2023-06-05T12:43:36;26.34;-6.00
67358;HTU21D;54240;51.096;5.878;2023-06-05T12:46:02;26.73;-6.00
67358;HTU21D;54240;51.096;5.878;2023-06-05T12:48:29;26.23;-6.00
67358;HTU21D;54240;51.096;5.878;2023-06-05T12:50:55;26.96;-6.00
67358;HTU21D;54240;51.096;5.878;2023-06-05T12:53:21;26.46;-6.00
67358;HTU21D;54240;51.096;5.878;2023-06-05T12:55:48;27.08;-6.00
67358;HTU21D;54240;51.096;5.878;2023-06-05T12:58:14;27.23;-6.00
67358;HTU21D;54240;51.096;5.878;2023-06-05T13:00:40;27.14;-6.00
67358;HTU21D;54240;51.096;5.878;2023-06-05T13:03:06;27.30;-6.00
67358;HTU21D;54240;51.096;5.878;2023-06-05T13:05:32;27.08;-6.00
67358;HTU21D;54240;51.096;5.878;2023-06-05T13:07:58;27.24;-6.00
67358;HTU21D;54240;51.096;5.878;2023-06-05T13:10:25;26.71;-6.00
67358;HTU21D;54240;51.096;5.878;2023-06-05T13:12:51;26.33;-6.00
67358;HTU21D;54240;51.096;5.878;2023-06-05T13:15:17;26.77;-6.00
67358;HTU21D;54240;51.096;5.878;2023-06-05T13:17:43;27.14;-6.00
67358;HTU21D;54240;51.096;5.878;2023-06-05T13:20:11;27.04;-6.00
67358;HTU21D;54240;51.096;5.878;2023-06-05T13:22:39;26.92;-6.00
67358;HTU21D;54240;51.096;5.878;2023-06-05T13:25:09;26.91;-6.00
67358;HTU21D;54240;51.096;5.878;2023-06-05T13:27:35;24.53;-6.00
67358;HTU21D;54240;51.096;5.878;2023-06-05T13:30:01;26.62;-6.00
67358;HTU21D;54240;51.096;5.878;2023-06-05T13:32:29;27.14;-6.00
67358;HTU21D;54240;51.096;5.878;2023-06-05T13:34:57;26.79;-6.00
67358;HTU21D;54240;51.096;5.878;2023-06-05T13:37:23;26.64;-6.00
67358;HTU21D;54240;51.096;5.878;2023-06-05T13:39:49;26.57;-6.00
67358;HTU21D;54240;51.096;5.878;2023-06-05T13:42:15;26.64;-6.00
67358;HTU21D;54240;51.096;5.878;2023-06-05T13:44:42;26.42;-6.00
67358;HTU21D;54240;51.096;5.878;2023-06-05T13:47:07;26.35;-6.00
67358;HTU21D;54240;51.096;5.878;2023-06-05T13:49:35;26.75;-6.00
67358;HTU21D;54240;51.096;5.878;2023-06-05T13:52:01;5.23;-6.00
67358;HTU21D;54240;51.096;5.878;2023-06-05T13:54:27;26.98;-6.00
67358;HTU21D;54240;51.096;5.878;2023-06-05T13:56:53;0.00;0.00
67358;HTU21D;54240;51.096;5.878;2023-06-05T13:59:19;0.00;0.00
67358;HTU21D;54240;51.096;5.878;2023-06-05T14:01:45;27.68;-6.00
67358;HTU21D;54240;51.096;5.878;2023-06-05T14:04:11;27.90;-6.00
67358;HTU21D;54240;51.096;5.878;2023-06-05T14:06:37;0.00;0.00
67358;HTU21D;54240;51.096;5.878;2023-06-05T14:09:05;0.00;0.00
67358;HTU21D;54240;51.096;5.878;2023-06-05T14:11:31;0.00;0.00
67358;HTU21D;54240;51.096;5.878;2023-06-05T14:13:58;26.93;-6.00
67358;HTU21D;54240;51.096;5.878;2023-06-05T14:16:25;26.91;-6.00
67358;HTU21D;54240;51.096;5.878;2023-06-05T14:18:52;26.99;-6.00
67358;HTU21D;54240;51.096;5.878;2023-06-05T14:21:18;27.15;-6.00
67358;HTU21D;54240;51.096;5.878;2023-06-05T14:23:44;27.49;-6.00
67358;HTU21D;54240;51.096;5.878;2023-06-05T14:26:10;27.60;-6.00
67358;HTU21D;54240;51.096;5.878;2023-06-05T14:28:36;27.57;-6.00
67358;HTU21D;54240;51.096;5.878;2023-06-05T14:31:02;27.65;-6.00
67358;HTU21D;54240;51.096;5.878;2023-06-05T14:33:28;0.00;0.00
67358;HTU21D;54240;51.096;5.878;2023-06-05T14:35:54;0.00;0.00
67358;HTU21D;54240;51.096;5.878;2023-06-05T14:38:20;0.00;0.00
67358;HTU21D;54240;51.096;5.878;2023-06-05T14:40:46;0.00;0.00
67358;HTU21D;54240;51.096;5.878;2023-06-05T14:43:16;0.00;0.00
67358;HTU21D;54240;51.096;5.878;2023-06-05T14:45:42;0.00;0.00
67358;HTU21D;54240;51.096;5.878;2023-06-05T14:48:08;0.00;0.00
67358;HTU21D;54240;51.096;5.878;2023-06-05T14:50:36;0.00;0.00
67358;HTU21D;54240;51.096;5.878;2023-06-05T14:53:02;0.00;0.00
67358;HTU21D;54240;51.096;5.878;2023-06-05T14:55:29;0.00;0.00
67358;HTU21D;54240;51.096;5.878;2023-06-05T14:57:55;0.00;0.00
67358;HTU21D;54240;51.096;5.878;2023-06-05T15:00:21;27.38;-6.00
67358;HTU21D;54240;51.096;5.878;2023-06-05T15:02:47;27.36;-6.00
67358;HTU21D;54240;51.096;5.878;2023-06-05T15:05:13;27.50;-6.00
67358;HTU21D;54240;51.096;5.878;2023-06-05T15:07:41;27.68;-6.00
67358;HTU21D;54240;51.096;5.878;2023-06-05T15:10:09;27.13;-6.00
67358;HTU21D;54240;51.096;5.878;2023-06-05T15:12:38;27.06;-6.00
67358;HTU21D;54240;51.096;5.878;2023-06-05T15:15:07;27.23;-6.00
67358;HTU21D;54240;51.096;5.878;2023-06-05T15:17:33;26.64;-6.00
67358;HTU21D;54240;51.096;5.878;2023-06-05T15:19:59;26.95;-6.00
67358;HTU21D;54240;51.096;5.878;2023-06-05T15:22:25;26.69;-6.00
67358;HTU21D;54240;51.096;5.878;2023-06-05T15:24:51;26.60;-6.00
67358;HTU21D;54240;51.096;5.878;2023-06-05T15:27:17;26.84;-6.00
67358;HTU21D;54240;51.096;5.878;2023-06-05T15:29:43;26.82;-6.00
67358;HTU21D;54240;51.096;5.878;2023-06-05T15:32:09;26.75;-6.00
67358;HTU21D;54240;51.096;5.878;2023-06-05T15:34:35;26.75;-6.00
67358;HTU21D;54240;51.096;5.878;2023-06-05T15:37:08;27.05;-6.00
67358;HTU21D;54240;51.096;5.878;2023-06-05T15:39:36;26.82;-6.00
67358;HTU21D;54240;51.096;5.878;2023-06-05T15:42:01;26.90;-6.00
67358;HTU21D;54240;51.096;5.878;2023-06-05T15:44:28;26.92;-6.00
67358;HTU21D;54240;51.096;5.878;2023-06-05T15:46:53;26.78;-6.00
67358;HTU21D;54240;51.096;5.878;2023-06-05T15:49:20;26.97;-6.00
67358;HTU21D;54240;51.096;5.878;2023-06-05T15:51:46;26.97;-6.00
67358;HTU21D;54240;51.096;5.878;2023-06-05T15:54:13;27.10;-6.00
67358;HTU21D;54240;51.096;5.878;2023-06-05T15:56:40;26.91;-6.00
67358;HTU21D;54240;51.096;5.878;2023-06-05T15:59:06;27.00;-6.00
67358;HTU21D;54240;51.096;5.878;2023-06-05T16:01:32;26.75;-6.00
67358;HTU21D;54240;51.096;5.878;2023-06-05T16:03:57;26.55;-6.00
67358;HTU21D;54240;51.096;5.878;2023-06-05T16:06:24;26.68;-6.00
67358;HTU21D;54240;51.096;5.878;2023-06-05T16:08:51;26.78;-6.00
67358;HTU21D;54240;51.096;5.878;2023-06-05T16:11:17;27.13;-6.00
67358;HTU21D;54240;51.096;5.878;2023-06-05T16:13:43;27.28;-6.00